createdAt,value
2023-01-23T00:00:12.694Z,1.53
2023-01-23T00:02:44.771Z,1.39
2023-01-23T00:05:16.862Z,1.46
2023-01-23T00:07:48.938Z,1.53
2023-01-23T00:10:21.386Z,1.53
2023-01-23T00:12:53.839Z,1.60
2023-01-23T00:15:26.884Z,1.60
2023-01-23T00:17:58.977Z,1.61
2023-01-23T00:20:31.089Z,1.56
2023-01-23T00:23:03.237Z,1.36
2023-01-23T00:25:35.579Z,1.33
2023-01-23T00:28:07.670Z,1.28
2023-01-23T00:30:40.466Z,1.22
2023-01-23T00:33:12.791Z,1.19
2023-01-23T00:35:44.853Z,1.15
2023-01-23T00:38:16.974Z,1.22
2023-01-23T00:40:51.245Z,1.23
2023-01-23T00:43:32.297Z,1.22
2023-01-23T00:46:05.202Z,1.25
2023-01-23T00:48:38.145Z,1.24
2023-01-23T00:51:10.279Z,1.25
2023-01-23T00:53:42.374Z,1.20
2023-01-23T00:56:14.791Z,1.13
2023-01-23T00:58:46.881Z,1.20
2023-01-23T01:01:22.003Z,1.29
2023-01-23T01:03:54.506Z,1.25
2023-01-23T01:06:28.167Z,1.30
2023-01-23T01:09:02.657Z,1.33
2023-01-23T01:11:34.808Z,1.09
2023-01-23T01:14:06.871Z,1.19
2023-01-23T01:16:44.441Z,1.06
2023-01-23T01:19:17.266Z,1.02
2023-01-23T01:21:49.620Z,1.09
2023-01-23T01:24:22.640Z,1.04
2023-01-23T01:26:54.722Z,0.66
2023-01-23T01:29:28.255Z,0.85
2023-01-23T01:32:01.641Z,0.88
2023-01-23T01:34:33.879Z,0.95
2023-01-23T01:37:05.980Z,1.01
2023-01-23T01:39:38.072Z,1.05
2023-01-23T01:42:10.161Z,1.05
2023-01-23T01:44:53.171Z,0.87
2023-01-23T01:47:26.290Z,0.84
2023-01-23T01:50:02.125Z,0.88
2023-01-23T01:52:34.268Z,0.90
2023-01-23T01:55:06.977Z,0.80
2023-01-23T01:57:42.288Z,0.90
2023-01-23T02:00:15.958Z,0.85
2023-01-23T02:02:52.155Z,0.90
2023-01-23T02:05:26.113Z,0.95
2023-01-23T02:08:00.928Z,1.00
2023-01-23T02:10:34.236Z,0.90
2023-01-23T02:13:19.107Z,1.09
2023-01-23T02:15:51.871Z,1.14
2023-01-23T02:18:26.232Z,1.14
2023-01-23T02:21:00.898Z,1.16
2023-01-23T02:23:37.194Z,1.19
2023-01-23T02:26:12.410Z,0.99
2023-01-23T02:28:45.500Z,1.07
2023-01-23T02:31:20.307Z,0.96
2023-01-23T02:33:53.510Z,1.01
2023-01-23T02:36:27.286Z,0.91
2023-01-23T02:39:03.582Z,1.01
2023-01-23T02:41:37.728Z,0.91
2023-01-23T02:44:12.914Z,0.98
2023-01-23T02:46:45.310Z,0.94
2023-01-23T02:49:17.573Z,1.05
2023-01-23T02:51:50.339Z,1.11
2023-01-23T02:54:22.691Z,1.18
2023-01-23T02:56:56.545Z,1.09
2023-01-23T02:59:47.863Z,0.99
2023-01-23T03:02:20.167Z,1.11
2023-01-23T03:04:53.503Z,1.16
2023-01-23T03:07:25.615Z,1.23
2023-01-23T03:09:57.673Z,1.28
2023-01-23T03:12:30.416Z,1.30
2023-01-23T03:15:05.425Z,1.23
2023-01-23T03:17:38.574Z,1.29
2023-01-23T03:20:11.106Z,1.20
2023-01-23T03:22:44.093Z,1.27
2023-01-23T03:25:16.184Z,1.26
2023-01-23T03:27:49.186Z,1.20
2023-01-23T03:30:21.439Z,1.30
2023-01-23T03:32:53.639Z,1.34
2023-01-23T03:35:25.682Z,1.34
2023-01-23T03:37:59.928Z,1.29
2023-01-23T03:40:50.468Z,1.33
2023-01-23T03:43:24.661Z,1.36
2023-01-23T03:45:56.799Z,1.24
2023-01-23T03:48:28.880Z,1.33
2023-01-23T03:51:02.074Z,1.19
2023-01-23T03:53:37.122Z,1.07
2023-01-23T03:56:09.598Z,1.20
2023-01-23T03:58:42.641Z,1.29
2023-01-23T04:01:14.868Z,1.24
2023-01-23T04:03:49.587Z,1.30
2023-01-23T04:06:21.944Z,1.40
2023-01-23T04:08:54.421Z,1.47
2023-01-23T04:11:27.283Z,1.41
2023-01-23T04:14:00.100Z,1.43
2023-01-23T04:16:32.611Z,1.45
2023-01-23T04:19:04.803Z,1.39
2023-01-23T04:21:36.902Z,1.47
2023-01-23T04:24:09.235Z,1.55
2023-01-23T04:26:41.293Z,1.44
2023-01-23T04:29:14.203Z,1.51
2023-01-23T04:31:46.339Z,1.52
2023-01-23T04:34:18.790Z,1.57
2023-01-23T04:36:52.240Z,1.89
2023-01-23T04:39:24.374Z,1.98
2023-01-23T04:41:56.522Z,2.02
2023-01-23T04:44:36.923Z,2.15
2023-01-23T04:47:38.323Z,2.25
2023-01-23T04:50:14.435Z,2.42
2023-01-23T04:52:49.875Z,2.68
2023-01-23T04:55:23.107Z,2.91
2023-01-23T04:57:56.037Z,3.19
2023-01-23T05:00:31.326Z,3.43
2023-01-23T05:03:05.464Z,3.57
2023-01-23T05:05:37.816Z,3.60
2023-01-23T05:08:10.374Z,3.70
2023-01-23T05:10:43.499Z,3.85
2023-01-23T05:13:18.279Z,3.93
2023-01-23T05:15:51.129Z,4.05
2023-01-23T05:18:23.228Z,4.06
2023-01-23T05:20:55.340Z,4.02
2023-01-23T05:23:27.362Z,4.08
2023-01-23T05:26:00.328Z,4.08
2023-01-23T05:28:33.278Z,4.12
2023-01-23T05:31:06.231Z,3.90
2023-01-23T05:33:45.617Z,3.92
2023-01-23T05:36:18.696Z,3.68
2023-01-23T05:38:51.258Z,3.87
2023-01-23T05:41:25.640Z,3.91
2023-01-23T05:44:20.838Z,3.92
2023-01-23T05:47:00.846Z,3.99
2023-01-23T05:49:32.983Z,3.94
2023-01-23T05:52:05.556Z,4.09
2023-01-23T05:54:38.646Z,4.14
2023-01-23T05:57:11.249Z,4.16
2023-01-23T06:00:02.128Z,4.11
2023-01-23T06:02:53.473Z,4.12
2023-01-23T06:05:34.331Z,4.11
2023-01-23T06:08:15.854Z,4.10
2023-01-23T06:10:48.247Z,4.09
2023-01-23T06:13:21.055Z,4.18
2023-01-23T06:15:53.339Z,4.25
2023-01-23T06:18:26.356Z,4.28
2023-01-23T06:20:59.662Z,4.41
2023-01-23T06:23:31.975Z,4.34
2023-01-23T06:26:05.052Z,4.27
2023-01-23T06:28:39.254Z,4.29
2023-01-23T06:31:12.586Z,4.30
2023-01-23T06:33:59.180Z,4.43
2023-01-23T06:36:35.907Z,4.58
2023-01-23T06:39:12.086Z,4.46
2023-01-23T06:41:46.492Z,4.53
2023-01-23T06:44:24.970Z,4.64
2023-01-23T06:46:57.060Z,4.67
2023-01-23T06:49:31.119Z,4.74
2023-01-23T06:52:03.321Z,4.83
2023-01-23T06:54:35.592Z,4.93
2023-01-23T06:57:08.775Z,5.03
2023-01-23T06:59:41.002Z,5.10
2023-01-23T07:02:15.265Z,5.03
2023-01-23T07:04:56.819Z,4.99
2023-01-23T07:07:28.891Z,5.17
2023-01-23T07:10:01.453Z,5.06
2023-01-23T07:12:34.364Z,4.95
2023-01-23T07:15:07.732Z,4.94
2023-01-23T07:17:43.999Z,5.09
2023-01-23T07:20:17.074Z,5.16
2023-01-23T07:22:54.331Z,5.03
2023-01-23T07:25:26.620Z,4.99
2023-01-23T07:27:58.687Z,5.02
2023-01-23T07:30:30.898Z,4.97
2023-01-23T07:33:03.324Z,4.84
2023-01-23T07:35:37.848Z,4.88
2023-01-23T07:38:09.887Z,4.86
2023-01-23T07:40:43.793Z,4.90
2023-01-23T07:43:16.043Z,4.81
2023-01-23T07:45:48.112Z,4.80
2023-01-23T07:48:20.127Z,4.91
2023-01-23T07:50:52.944Z,4.94
2023-01-23T07:53:25.055Z,4.91
2023-01-23T07:55:57.158Z,5.04
2023-01-23T07:58:29.148Z,5.08
2023-01-23T08:01:07.415Z,5.17
2023-01-23T08:03:39.623Z,5.36
2023-01-23T08:06:12.605Z,5.52
2023-01-23T08:08:47.131Z,5.70
2023-01-23T08:11:19.289Z,5.81
2023-01-23T08:13:51.307Z,5.93
2023-01-23T08:16:23.405Z,6.02
2023-01-23T08:18:55.492Z,5.95
2023-01-23T08:21:28.241Z,6.00
2023-01-23T08:24:00.974Z,6.10
2023-01-23T08:26:33.655Z,6.08
2023-01-23T08:29:05.659Z,6.30
2023-01-23T08:31:38.244Z,6.40
2023-01-23T08:34:10.355Z,6.42
2023-01-23T08:36:43.116Z,6.41
2023-01-23T08:39:15.970Z,6.30
2023-01-23T08:41:48.063Z,6.33
2023-01-23T08:44:20.826Z,6.14
2023-01-23T08:46:52.985Z,6.17
2023-01-23T08:49:25.201Z,6.16
2023-01-23T08:51:59.317Z,6.33
2023-01-23T08:54:31.548Z,6.47
2023-01-23T08:57:03.671Z,6.58
2023-01-23T08:59:35.943Z,6.66
2023-01-23T09:02:10.451Z,6.67
2023-01-23T09:04:42.641Z,6.33
2023-01-23T09:07:15.341Z,6.49
2023-01-23T09:09:47.932Z,6.56
2023-01-23T09:12:19.971Z,6.66
2023-01-23T09:14:51.990Z,6.58
2023-01-23T09:17:24.100Z,6.68
2023-01-23T09:19:57.462Z,6.54
2023-01-23T09:22:30.452Z,6.68
2023-01-23T09:25:02.511Z,6.77
2023-01-23T09:27:34.535Z,6.95
2023-01-23T09:30:07.426Z,7.01
2023-01-23T09:32:39.559Z,6.91
2023-01-23T09:35:11.709Z,6.99
2023-01-23T09:37:59.514Z,7.14
2023-01-23T09:40:34.267Z,7.07
2023-01-23T09:43:12.012Z,6.93
2023-01-23T09:45:47.567Z,7.19
2023-01-23T09:48:22.450Z,7.26
2023-01-23T09:50:56.040Z,7.25
2023-01-23T09:53:33.971Z,7.35
2023-01-23T09:56:12.214Z,7.48
2023-01-23T09:58:50.166Z,7.56
2023-01-23T10:01:23.774Z,7.63
2023-01-23T10:03:56.994Z,7.75
2023-01-23T10:06:30.592Z,7.62
2023-01-23T10:09:19.936Z,7.63
2023-01-23T10:11:58.833Z,7.71
2023-01-23T10:14:49.553Z,7.74
2023-01-23T10:17:25.344Z,7.76
2023-01-23T10:20:13.753Z,7.45
2023-01-23T10:22:50.986Z,7.29
2023-01-23T10:25:25.349Z,7.18
2023-01-23T10:28:00.202Z,7.05
2023-01-23T10:30:34.778Z,7.08
2023-01-23T10:33:10.891Z,6.94
2023-01-23T10:35:46.968Z,6.92
2023-01-23T10:38:25.541Z,6.87
2023-01-23T10:41:13.847Z,6.75
2023-01-23T10:43:46.993Z,6.84
2023-01-23T10:46:20.616Z,6.53
2023-01-23T10:48:53.265Z,6.61
2023-01-23T10:51:43.454Z,6.65
2023-01-23T10:54:30.711Z,6.67
2023-01-23T10:57:21.426Z,6.56
2023-01-23T10:59:56.035Z,6.56
2023-01-23T11:02:29.544Z,6.56
2023-01-23T11:05:03.805Z,6.47
2023-01-23T11:07:37.383Z,6.45
2023-01-23T11:10:16.447Z,6.37
2023-01-23T11:12:50.885Z,6.54
2023-01-23T11:15:24.612Z,6.52
2023-01-23T11:17:57.446Z,6.63
2023-01-23T11:20:31.206Z,6.68
2023-01-23T11:23:04.542Z,6.66
2023-01-23T11:25:38.201Z,6.61
2023-01-23T11:28:22.817Z,6.57
2023-01-23T11:31:11.913Z,6.45
2023-01-23T11:33:51.847Z,6.32
2023-01-23T11:36:37.987Z,6.27
2023-01-23T11:39:16.679Z,6.20
2023-01-23T11:41:48.990Z,6.22
2023-01-23T11:44:23.075Z,6.12
2023-01-23T11:47:01.373Z,6.20
2023-01-23T11:49:46.472Z,6.12
2023-01-23T11:52:26.254Z,6.06
2023-01-23T11:55:12.038Z,6.03
2023-01-23T11:57:54.597Z,6.02
2023-01-23T12:00:32.965Z,6.02
2023-01-23T12:03:24.070Z,5.98
2023-01-23T12:06:26.332Z,5.90
2023-01-23T12:09:02.030Z,5.88
2023-01-23T12:11:36.822Z,5.88
2023-01-23T12:14:13.791Z,5.83
2023-01-23T12:16:55.013Z,5.77
2023-01-23T12:19:33.663Z,5.77
2023-01-23T12:22:09.727Z,5.74
2023-01-23T12:24:51.251Z,5.62
2023-01-23T12:27:28.418Z,5.59
2023-01-23T12:30:10.741Z,5.57
2023-01-23T12:32:47.983Z,5.49
2023-01-23T12:35:26.933Z,5.60
2023-01-23T12:38:08.123Z,5.54
2023-01-23T12:40:41.770Z,5.67
2023-01-23T12:43:16.583Z,5.70
2023-01-23T12:45:52.908Z,5.65
2023-01-23T12:48:29.386Z,5.71
2023-01-23T12:51:05.812Z,5.63
2023-01-23T12:53:40.735Z,5.63
2023-01-23T12:56:14.844Z,5.75
2023-01-23T12:58:51.646Z,5.84
2023-01-23T13:01:29.076Z,5.87
2023-01-23T13:04:19.095Z,5.87
2023-01-23T13:06:58.687Z,5.93
2023-01-23T13:09:39.689Z,5.97
2023-01-23T13:12:21.028Z,6.03
2023-01-23T13:15:13.329Z,6.15
2023-01-23T13:17:47.705Z,5.99
2023-01-23T13:20:42.710Z,5.89
2023-01-23T13:23:22.792Z,5.82
2023-01-23T13:26:13.616Z,5.78
2023-01-23T13:28:47.305Z,5.91
2023-01-23T13:31:27.326Z,6.09
2023-01-23T13:34:14.663Z,6.12
2023-01-23T13:36:48.218Z,6.33
2023-01-23T13:39:22.413Z,6.40
2023-01-23T13:42:13.335Z,6.60
2023-01-23T13:45:04.020Z,6.72
2023-01-23T14:25:48.000Z,7.37
2023-01-23T14:28:20.199Z,7.23
2023-01-23T14:30:53.167Z,7.24
2023-01-23T14:33:26.832Z,7.20
2023-01-23T14:35:59.026Z,7.35
2023-01-23T14:38:32.924Z,7.37
2023-01-23T14:41:05.934Z,7.50
2023-01-23T14:43:39.898Z,7.78
2023-01-23T14:46:14.930Z,7.98
2023-01-23T14:48:50.994Z,8.17
2023-01-23T14:51:24.162Z,8.12
2023-01-23T14:53:57.275Z,7.90
2023-01-23T14:56:30.928Z,7.78
2023-01-23T14:59:04.368Z,7.65
2023-01-23T15:01:36.515Z,7.52
2023-01-23T15:04:20.193Z,7.54
2023-01-23T15:06:53.402Z,7.03
2023-01-23T15:09:29.225Z,7.11
2023-01-23T15:12:05.961Z,6.99
2023-01-23T15:14:38.831Z,6.83
2023-01-23T15:17:13.524Z,6.69
2023-01-23T15:19:50.120Z,6.61
2023-01-23T15:22:25.304Z,6.33
2023-01-23T15:24:57.342Z,6.30
2023-01-23T15:27:31.433Z,6.12
2023-01-23T15:30:22.028Z,5.99
2023-01-23T15:32:54.442Z,6.02
2023-01-23T15:35:27.135Z,5.83
2023-01-23T15:38:04.114Z,5.72
2023-01-23T15:40:37.495Z,5.63
2023-01-23T15:43:11.060Z,5.49
2023-01-23T15:45:43.091Z,5.44
2023-01-23T15:48:15.153Z,5.55
2023-01-23T15:50:47.853Z,5.60
2023-01-23T15:53:20.308Z,5.53
2023-01-23T15:55:52.416Z,5.46
2023-01-23T15:58:24.582Z,5.47
2023-01-23T16:00:56.629Z,5.40
2023-01-23T16:03:28.732Z,5.41
2023-01-23T16:06:01.483Z,5.27
2023-01-23T16:08:33.703Z,5.37
2023-01-23T16:11:05.715Z,5.27
2023-01-23T16:13:37.840Z,5.31
2023-01-23T16:16:12.859Z,5.14
2023-01-23T16:18:44.949Z,5.04
2023-01-23T16:21:19.204Z,5.02
2023-01-23T16:23:53.133Z,4.97
2023-01-23T16:26:27.412Z,4.92
2023-01-23T16:29:13.209Z,4.86
2023-01-23T16:31:45.957Z,4.70
2023-01-23T16:34:18.229Z,4.63
2023-01-23T16:36:52.215Z,4.62
2023-01-23T16:39:26.237Z,4.69
2023-01-23T16:41:58.411Z,4.90
2023-01-23T16:44:30.549Z,5.00
2023-01-23T16:47:02.607Z,4.88
2023-01-23T16:49:46.803Z,4.93
2023-01-23T16:52:25.264Z,4.83
2023-01-23T16:54:57.935Z,4.83
2023-01-23T16:57:30.425Z,4.72
2023-01-23T17:00:04.036Z,4.66
2023-01-23T17:02:36.218Z,4.53
2023-01-23T17:05:08.687Z,4.45
2023-01-23T17:07:41.417Z,4.50
2023-01-23T17:10:14.715Z,4.42
2023-01-23T17:12:47.199Z,4.35
2023-01-23T17:15:21.352Z,4.40
2023-01-23T17:17:55.707Z,4.32
2023-01-23T17:20:28.191Z,4.48
2023-01-23T17:23:01.522Z,4.44
2023-01-23T17:25:34.896Z,4.35
2023-01-23T17:28:13.122Z,4.48
2023-01-23T17:30:47.463Z,4.44
2023-01-23T17:33:21.008Z,4.61
2023-01-23T17:35:53.301Z,4.62
2023-01-23T17:38:28.333Z,4.66
2023-01-23T17:41:00.876Z,4.75
2023-01-23T17:43:33.087Z,4.88
2023-01-23T17:46:05.215Z,4.96
2023-01-23T17:48:39.665Z,5.07
2023-01-23T17:51:15.352Z,5.08
2023-01-23T17:53:48.484Z,5.02
2023-01-23T17:56:20.854Z,5.03
2023-01-23T17:58:52.905Z,5.06
2023-01-23T18:01:25.489Z,4.97
2023-01-23T18:03:57.745Z,4.70
2023-01-23T18:06:30.498Z,4.77
2023-01-23T18:09:03.379Z,4.87
2023-01-23T18:11:36.935Z,4.89
2023-01-23T18:14:15.278Z,4.79
2023-01-23T18:16:49.435Z,4.82
2023-01-23T18:19:22.920Z,4.78
2023-01-23T18:21:55.620Z,4.52
2023-01-23T18:24:29.702Z,4.47
2023-01-23T18:27:12.266Z,4.61
2023-01-23T18:29:51.969Z,4.62
2023-01-23T18:32:39.516Z,4.63
2023-01-23T18:35:21.447Z,4.67
2023-01-23T18:37:59.146Z,4.70
2023-01-23T18:40:36.743Z,4.73
2023-01-23T18:43:14.494Z,4.70
2023-01-23T18:45:47.870Z,4.49
2023-01-23T18:48:25.412Z,4.52
2023-01-23T18:51:08.101Z,4.43
2023-01-23T18:53:46.501Z,4.42
2023-01-23T18:56:24.351Z,4.49
2023-01-23T18:59:11.811Z,4.51
2023-01-23T19:01:51.524Z,4.55
2023-01-23T19:04:30.613Z,4.47
2023-01-23T19:07:03.805Z,4.51
2023-01-23T19:09:37.539Z,4.60
2023-01-23T19:12:25.334Z,4.56
2023-01-23T19:15:04.855Z,4.56
2023-01-23T19:17:41.689Z,4.56
2023-01-23T19:20:21.658Z,4.62
2023-01-23T19:23:00.117Z,4.61
2023-01-23T19:25:32.644Z,4.67
2023-01-23T19:28:06.617Z,4.68
2023-01-23T19:30:39.336Z,4.74
2023-01-23T19:33:15.334Z,4.68
2023-01-23T19:35:49.364Z,4.69
2023-01-23T19:38:23.466Z,4.67
2023-01-23T19:40:57.416Z,4.61
2023-01-23T19:43:32.602Z,4.67
2023-01-23T19:46:06.382Z,4.64
2023-01-23T19:48:40.277Z,4.58
2023-01-23T19:51:15.367Z,4.63
2023-01-23T19:53:47.979Z,4.51
2023-01-23T19:56:20.733Z,4.53
2023-01-23T19:58:53.830Z,4.37
2023-01-23T20:01:29.546Z,4.30
2023-01-23T20:04:03.677Z,4.23
2023-01-23T20:06:38.806Z,4.27
2023-01-23T20:09:13.688Z,4.23
2023-01-23T20:11:46.341Z,4.14
2023-01-23T20:14:19.480Z,4.13
2023-01-23T20:16:52.454Z,4.14
2023-01-23T20:19:25.373Z,3.92
2023-01-23T20:21:57.711Z,3.89
2023-01-23T20:24:29.724Z,3.87
2023-01-23T20:27:01.985Z,3.85
2023-01-23T20:29:34.751Z,3.90
2023-01-23T20:32:07.118Z,3.74
2023-01-23T20:34:39.194Z,3.76
2023-01-23T20:37:11.304Z,3.80
2023-01-23T20:39:43.359Z,3.79
2023-01-23T20:42:15.769Z,3.80
2023-01-23T20:44:48.720Z,3.85
2023-01-23T20:47:20.790Z,3.91
2023-01-23T20:49:52.878Z,3.94
2023-01-23T20:52:43.148Z,3.95
2023-01-23T20:55:15.398Z,4.00
2023-01-23T20:58:05.515Z,3.95
2023-01-23T21:00:38.465Z,3.97
2023-01-23T21:03:10.825Z,3.95
2023-01-23T21:05:42.912Z,3.95
2023-01-23T21:08:14.992Z,3.97
2023-01-23T21:10:47.049Z,4.02
2023-01-23T21:13:19.644Z,3.94
2023-01-23T21:15:59.187Z,3.93
2023-01-23T21:18:31.463Z,3.88
2023-01-23T21:21:04.481Z,3.92
2023-01-23T21:23:36.576Z,3.96
2023-01-23T21:26:08.710Z,4.01
2023-01-23T21:28:40.784Z,3.84
2023-01-23T21:31:14.614Z,3.82
2023-01-23T21:33:47.015Z,3.68
2023-01-23T21:36:20.130Z,3.61
2023-01-23T21:39:10.188Z,3.42
2023-01-23T21:41:42.872Z,3.38
2023-01-23T21:44:14.979Z,3.38
2023-01-23T21:46:48.466Z,3.39
2023-01-23T21:49:20.564Z,3.35
2023-01-23T21:51:52.576Z,3.27
2023-01-23T21:54:24.987Z,3.30
2023-01-23T21:56:56.996Z,3.29
2023-01-23T21:59:29.327Z,3.26
2023-01-23T22:02:02.121Z,3.24
2023-01-23T22:04:34.685Z,3.29
2023-01-23T22:07:06.752Z,3.28
2023-01-23T22:09:38.822Z,3.19
2023-01-23T22:12:10.824Z,3.12
2023-01-23T22:14:42.876Z,3.10
2023-01-23T22:17:15.557Z,3.12
2023-01-23T22:19:47.657Z,3.12
2023-01-23T22:22:20.021Z,3.05
2023-01-23T22:24:52.098Z,2.94
2023-01-23T22:27:24.240Z,2.82
2023-01-23T22:29:56.329Z,2.87
2023-01-23T22:32:29.011Z,2.87
2023-01-23T22:35:01.554Z,2.82
2023-01-23T22:37:33.563Z,2.77
2023-01-23T22:40:06.553Z,2.82
2023-01-23T22:42:38.694Z,2.78
2023-01-23T22:45:11.703Z,2.87
2023-01-23T22:47:44.603Z,2.89
2023-01-23T22:50:17.144Z,2.93
2023-01-23T22:52:49.165Z,2.95
2023-01-23T22:55:21.548Z,3.01
2023-01-23T22:57:53.799Z,3.01
2023-01-23T23:00:25.885Z,2.99
2023-01-23T23:02:58.562Z,2.97
2023-01-23T23:05:30.872Z,3.03
2023-01-23T23:08:03.100Z,3.05
2023-01-23T23:10:35.437Z,3.16
2023-01-23T23:13:07.701Z,3.19
2023-01-23T23:15:39.722Z,3.16
2023-01-23T23:18:12.561Z,3.25
2023-01-23T23:20:44.647Z,3.27
2023-01-23T23:23:18.537Z,3.29
2023-01-23T23:25:52.484Z,3.39
2023-01-23T23:28:25.700Z,3.34
2023-01-23T23:30:57.999Z,3.29
2023-01-23T23:33:30.774Z,3.26
2023-01-23T23:36:03.149Z,3.28
2023-01-23T23:38:35.478Z,3.33
2023-01-23T23:41:08.929Z,3.21
2023-01-23T23:43:41.338Z,3.03
2023-01-23T23:46:14.055Z,3.04
2023-01-23T23:48:47.420Z,2.94
2023-01-23T23:51:19.709Z,2.88
2023-01-23T23:53:52.135Z,2.88
2023-01-23T23:56:25.678Z,2.87
2023-01-23T23:58:58.020Z,2.86
